createdAt,value
2019-05-29T00:00:05.736Z,11.26
2019-05-29T00:01:08.679Z,11.23
2019-05-29T00:02:05.961Z,11.22
2019-05-29T00:03:04.469Z,11.18
2019-05-29T00:04:04.444Z,11.15
2019-05-29T00:05:04.454Z,11.13
2019-05-29T00:06:04.417Z,11.12
2019-05-29T00:07:04.442Z,11.10
2019-05-29T00:08:04.403Z,11.10
2019-05-29T00:09:04.396Z,11.07
2019-05-29T00:10:04.387Z,11.07
2019-05-29T00:11:04.363Z,11.07
2019-05-29T00:12:04.394Z,11.05
2019-05-29T00:13:04.349Z,11.01
2019-05-29T00:14:18.743Z,11.00
2019-05-29T00:15:06.177Z,11.00
2019-05-29T00:16:04.337Z,11.01
2019-05-29T00:17:04.318Z,11.01
2019-05-29T00:18:04.305Z,11.02
2019-05-29T00:19:04.288Z,11.04
2019-05-29T00:20:04.281Z,11.04
2019-05-29T00:21:04.264Z,11.04
2019-05-29T00:22:04.274Z,11.01
2019-05-29T00:23:04.254Z,10.98
2019-05-29T00:24:04.219Z,10.98
2019-05-29T00:25:04.216Z,10.94
2019-05-29T00:26:04.213Z,10.92
2019-05-29T00:27:05.291Z,10.92
2019-05-29T00:28:04.194Z,10.92
2019-05-29T00:29:05.543Z,10.92
2019-05-29T00:30:04.156Z,10.92
2019-05-29T00:31:04.165Z,10.92
2019-05-29T00:32:04.178Z,10.95
2019-05-29T00:33:04.141Z,10.92
2019-05-29T00:34:04.106Z,10.94
2019-05-29T00:35:04.152Z,10.90
2019-05-29T00:36:04.088Z,10.89
2019-05-29T00:37:04.085Z,10.90
2019-05-29T00:38:04.139Z,10.90
2019-05-29T00:39:04.068Z,10.94
2019-05-29T00:40:04.048Z,10.95
2019-05-29T00:41:04.047Z,10.94
2019-05-29T00:42:04.029Z,10.94
2019-05-29T00:43:04.048Z,10.94
2019-05-29T00:44:04.009Z,10.94
2019-05-29T00:45:04.015Z,10.90
2019-05-29T00:46:03.992Z,10.90
2019-05-29T00:47:04.031Z,10.92
2019-05-29T00:48:03.994Z,10.92
2019-05-29T00:49:03.954Z,10.94
2019-05-29T00:50:03.932Z,10.92
2019-05-29T00:51:03.939Z,10.90
2019-05-29T00:52:03.930Z,10.90
2019-05-29T00:53:03.936Z,10.86
2019-05-29T00:54:03.905Z,10.84
2019-05-29T00:55:03.900Z,10.86
2019-05-29T00:56:03.875Z,10.86
2019-05-29T00:57:03.868Z,10.86
2019-05-29T00:58:03.876Z,10.86
2019-05-29T00:59:03.841Z,10.86
2019-05-29T01:00:03.825Z,10.86
2019-05-29T01:01:03.835Z,10.80
2019-05-29T01:02:03.826Z,10.82
2019-05-29T01:03:03.823Z,10.80
2019-05-29T01:04:03.805Z,10.82
2019-05-29T01:05:03.791Z,10.80
2019-05-29T01:06:03.761Z,10.80
2019-05-29T01:07:03.752Z,10.79
2019-05-29T01:08:03.752Z,10.80
2019-05-29T01:09:03.752Z,10.77
2019-05-29T01:10:03.722Z,10.79
2019-05-29T01:11:03.727Z,10.77
2019-05-29T01:12:03.700Z,10.82
2019-05-29T01:13:03.720Z,10.82
2019-05-29T01:14:03.701Z,10.77
2019-05-29T01:15:03.681Z,10.77
2019-05-29T01:16:03.651Z,10.75
2019-05-29T01:17:03.663Z,10.75
2019-05-29T01:18:03.655Z,10.71
2019-05-29T01:19:03.627Z,10.68
2019-05-29T01:20:03.634Z,10.67
2019-05-29T01:21:03.611Z,10.65
2019-05-29T01:22:03.586Z,10.64
2019-05-29T01:23:03.601Z,10.62
2019-05-29T01:24:03.578Z,10.61
2019-05-29T01:25:03.562Z,10.59
2019-05-29T01:26:03.538Z,10.58
2019-05-29T01:27:03.645Z,10.49
2019-05-29T01:28:03.551Z,10.46
2019-05-29T01:29:03.578Z,10.46
2019-05-29T01:30:03.514Z,10.45
2019-05-29T01:31:03.487Z,10.43
2019-05-29T01:32:03.486Z,10.39
2019-05-29T01:33:03.514Z,10.34
2019-05-29T01:34:03.491Z,10.28
2019-05-29T01:35:03.448Z,10.21
2019-05-29T01:36:03.443Z,10.15
2019-05-29T01:37:03.423Z,10.07
2019-05-29T01:38:03.452Z,10.03
2019-05-29T01:39:03.411Z,9.97
2019-05-29T01:40:18.669Z,9.90
2019-05-29T01:41:04.378Z,9.85
2019-05-29T01:42:03.372Z,9.81
2019-05-29T01:43:03.388Z,9.76
2019-05-29T01:44:03.347Z,9.73
2019-05-29T01:45:07.903Z,9.67
2019-05-29T01:46:04.332Z,9.64
2019-05-29T01:47:03.309Z,9.62
2019-05-29T01:48:03.336Z,9.58
2019-05-29T01:49:03.304Z,9.56
2019-05-29T01:50:03.327Z,9.54
2019-05-29T01:51:03.295Z,9.52
2019-05-29T01:52:03.265Z,9.49
2019-05-29T01:53:03.274Z,9.47
2019-05-29T01:54:03.248Z,9.44
2019-05-29T01:55:03.227Z,9.44
2019-05-29T01:56:03.236Z,9.39
2019-05-29T01:57:03.236Z,9.37
2019-05-29T01:58:03.233Z,9.33
2019-05-29T01:59:03.202Z,9.31
2019-05-29T02:00:03.183Z,9.29
2019-05-29T02:01:03.167Z,9.26
2019-05-29T02:02:03.166Z,9.22
2019-05-29T02:03:03.184Z,9.22
2019-05-29T02:04:03.143Z,9.19
2019-05-29T02:05:03.130Z,9.18
2019-05-29T02:06:03.122Z,9.13
2019-05-29T02:07:03.107Z,9.13
2019-05-29T02:08:03.233Z,9.09
2019-05-29T02:09:03.066Z,9.03
2019-05-29T02:10:03.063Z,9.02
2019-05-29T02:11:03.044Z,9.02
2019-05-29T02:12:03.038Z,9.00
2019-05-29T02:13:03.179Z,8.99
2019-05-29T02:14:03.040Z,8.96
2019-05-29T02:15:02.999Z,8.93
2019-05-29T02:16:03.027Z,8.92
2019-05-29T02:17:02.985Z,8.89
2019-05-29T02:18:02.989Z,8.89
2019-05-29T02:19:03.100Z,8.87
2019-05-29T02:20:02.963Z,8.86
2019-05-29T02:21:02.951Z,8.84
2019-05-29T02:22:02.945Z,8.84
2019-05-29T02:23:02.935Z,8.81
2019-05-29T02:24:02.969Z,8.78
2019-05-29T02:25:02.904Z,8.77
2019-05-29T02:26:02.899Z,8.75
2019-05-29T02:27:02.871Z,8.74
2019-05-29T02:28:02.869Z,8.72
2019-05-29T02:29:02.881Z,8.71
2019-05-29T02:30:02.852Z,8.71
2019-05-29T02:31:02.842Z,8.68
2019-05-29T02:32:02.836Z,8.66
2019-05-29T02:33:02.799Z,8.68
2019-05-29T02:34:07.025Z,8.69
2019-05-29T02:35:02.795Z,8.68
2019-05-29T02:36:02.788Z,8.66
2019-05-29T02:37:02.770Z,8.64
2019-05-29T02:38:02.765Z,8.61
2019-05-29T02:39:02.764Z,8.59
2019-05-29T02:40:02.742Z,8.59
2019-05-29T02:41:02.744Z,8.54
2019-05-29T02:42:02.729Z,8.54
2019-05-29T02:43:02.725Z,8.54
2019-05-29T02:44:02.797Z,8.53
2019-05-29T02:45:02.683Z,8.50
2019-05-29T02:46:02.658Z,8.50
2019-05-29T02:47:02.660Z,8.50
2019-05-29T02:48:02.656Z,8.46
2019-05-29T02:49:02.742Z,8.45
2019-05-29T02:50:02.626Z,8.44
2019-05-29T02:51:02.615Z,8.46
2019-05-29T02:52:02.594Z,8.45
2019-05-29T02:53:02.602Z,8.45
2019-05-29T02:54:02.627Z,8.42
2019-05-29T02:55:02.570Z,8.41
2019-05-29T02:56:02.559Z,8.39
2019-05-29T02:57:02.553Z,8.38
2019-05-29T02:58:02.542Z,8.36
2019-05-29T02:59:02.613Z,8.35
2019-05-29T03:00:02.546Z,8.32
2019-05-29T03:01:02.511Z,8.31
2019-05-29T03:02:02.529Z,8.31
2019-05-29T03:03:02.493Z,8.28
2019-05-29T03:04:02.498Z,8.26
2019-05-29T03:05:02.478Z,8.21
2019-05-29T03:06:02.454Z,8.24
2019-05-29T03:07:02.466Z,8.23
2019-05-29T03:08:02.430Z,8.23
2019-05-29T03:09:02.464Z,8.21
2019-05-29T03:10:02.413Z,8.18
2019-05-29T03:11:02.403Z,8.18
2019-05-29T03:12:02.393Z,8.20
2019-05-29T03:13:02.383Z,8.23
2019-05-29T03:14:02.623Z,8.23
2019-05-29T03:15:02.360Z,8.24
2019-05-29T03:16:10.389Z,8.26
2019-05-29T03:17:03.330Z,8.24
2019-05-29T03:18:02.340Z,8.26
2019-05-29T03:19:02.679Z,8.27
2019-05-29T03:20:02.301Z,8.27
2019-05-29T03:21:02.299Z,8.28
2019-05-29T03:22:02.294Z,8.27
2019-05-29T03:23:02.279Z,8.26
2019-05-29T03:24:02.296Z,8.26
2019-05-29T03:25:02.259Z,8.27
2019-05-29T03:26:02.240Z,8.24
2019-05-29T03:27:02.248Z,8.23
2019-05-29T03:28:02.220Z,8.23
2019-05-29T03:29:02.236Z,8.23
2019-05-29T03:30:02.201Z,8.24
2019-05-29T03:31:02.182Z,8.23
2019-05-29T03:32:02.194Z,8.23
2019-05-29T03:33:02.170Z,8.23
2019-05-29T03:34:02.274Z,8.23
2019-05-29T03:35:02.200Z,8.27
2019-05-29T03:36:02.160Z,8.28
2019-05-29T03:37:02.147Z,8.34
2019-05-29T03:38:02.103Z,8.36
2019-05-29T03:39:02.083Z,8.39
2019-05-29T03:40:02.135Z,8.42
2019-05-29T03:41:02.070Z,8.46
2019-05-29T03:42:02.067Z,8.49
2019-05-29T03:43:02.076Z,8.53
2019-05-29T03:44:02.044Z,8.57
2019-05-29T03:45:02.121Z,8.61
2019-05-29T03:46:02.037Z,8.66
2019-05-29T03:47:02.019Z,8.71
2019-05-29T03:48:02.009Z,8.74
2019-05-29T03:49:02.042Z,8.75
2019-05-29T03:50:01.975Z,8.78
2019-05-29T03:51:01.986Z,8.77
2019-05-29T03:52:01.960Z,8.75
2019-05-29T03:53:02.005Z,8.79
2019-05-29T03:54:02.021Z,8.81
2019-05-29T03:55:01.998Z,8.86
2019-05-29T03:56:01.922Z,8.87
2019-05-29T03:57:01.912Z,8.86
2019-05-29T03:58:01.883Z,8.87
2019-05-29T03:59:01.911Z,8.86
2019-05-29T04:00:01.882Z,8.86
2019-05-29T04:01:01.867Z,8.89
2019-05-29T04:02:01.843Z,8.90
2019-05-29T04:03:01.848Z,8.93
2019-05-29T04:04:01.843Z,8.90
2019-05-29T04:05:01.819Z,8.92
2019-05-29T04:06:01.819Z,8.92
2019-05-29T04:07:01.797Z,8.95
2019-05-29T04:08:01.782Z,8.96
2019-05-29T04:09:01.810Z,8.96
2019-05-29T04:10:01.766Z,8.97
2019-05-29T04:11:01.755Z,9.00
2019-05-29T04:12:01.767Z,9.02
2019-05-29T04:13:01.721Z,8.99
2019-05-29T04:14:01.745Z,8.99
2019-05-29T04:15:01.743Z,8.97
2019-05-29T04:16:01.693Z,8.95
2019-05-29T04:17:01.670Z,8.96
2019-05-29T04:18:01.676Z,8.99
2019-05-29T04:19:01.678Z,8.97
2019-05-29T04:20:01.694Z,8.96
2019-05-29T04:21:01.652Z,8.93
2019-05-29T04:22:01.636Z,8.90
2019-05-29T04:23:01.613Z,8.90
2019-05-29T04:24:01.637Z,8.95
2019-05-29T04:25:01.616Z,8.97
2019-05-29T04:26:01.581Z,8.95
2019-05-29T04:27:01.559Z,8.93
2019-05-29T04:28:01.570Z,8.96
2019-05-29T04:29:01.707Z,8.96
2019-05-29T04:30:01.548Z,8.99
2019-05-29T04:31:01.529Z,9.02
2019-05-29T04:32:01.542Z,9.08
2019-05-29T04:33:01.504Z,9.11
2019-05-29T04:34:01.483Z,9.16
2019-05-29T04:35:01.518Z,9.18
2019-05-29T04:36:01.458Z,9.18
2019-05-29T04:37:01.458Z,9.21
2019-05-29T04:38:01.443Z,9.26
2019-05-29T04:39:01.450Z,9.31
2019-05-29T04:40:01.669Z,9.36
2019-05-29T04:41:01.435Z,9.40
2019-05-29T04:42:01.422Z,9.44
2019-05-29T04:43:01.403Z,9.42
2019-05-29T04:44:01.437Z,9.45
2019-05-29T04:45:01.376Z,9.45
2019-05-29T04:46:01.377Z,9.47
2019-05-29T04:47:10.985Z,9.52
2019-05-29T04:48:02.377Z,9.58
2019-05-29T04:49:01.360Z,9.59
2019-05-29T04:50:01.343Z,9.62
2019-05-29T04:51:01.309Z,9.62
2019-05-29T04:52:01.290Z,9.58
2019-05-29T04:53:01.292Z,9.59
2019-05-29T04:54:01.258Z,9.62
2019-05-29T04:55:01.285Z,9.66
2019-05-29T04:56:01.231Z,9.66
2019-05-29T04:57:01.238Z,9.64
2019-05-29T04:58:01.210Z,9.64
2019-05-29T04:59:01.200Z,9.67
2019-05-29T05:00:01.249Z,9.72
2019-05-29T05:01:01.199Z,9.73
2019-05-29T05:02:01.165Z,9.76
2019-05-29T05:03:01.179Z,9.80
2019-05-29T05:04:01.146Z,9.85
2019-05-29T05:05:01.265Z,9.87
2019-05-29T05:06:01.129Z,9.87
2019-05-29T05:07:01.139Z,9.92
2019-05-29T05:08:01.126Z,9.97
2019-05-29T05:09:01.098Z,9.95
2019-05-29T05:10:01.112Z,9.94
2019-05-29T05:11:01.075Z,9.94
2019-05-29T05:12:01.079Z,9.97
2019-05-29T05:13:01.051Z,9.99
2019-05-29T05:14:01.724Z,10.05
2019-05-29T05:15:01.100Z,10.12
2019-05-29T05:16:01.033Z,10.15
2019-05-29T05:17:01.005Z,10.17
2019-05-29T05:18:01.012Z,10.20
2019-05-29T05:19:00.996Z,10.24
2019-05-29T05:20:01.023Z,10.27
2019-05-29T05:21:00.977Z,10.28
2019-05-29T05:22:00.971Z,10.31
2019-05-29T05:23:00.966Z,10.34
2019-05-29T05:24:00.935Z,10.34
2019-05-29T05:25:00.951Z,10.33
2019-05-29T05:26:00.947Z,10.28
2019-05-29T05:27:00.916Z,10.28
2019-05-29T05:28:00.902Z,10.27
2019-05-29T05:29:00.892Z,10.34
2019-05-29T05:30:00.897Z,10.43
2019-05-29T05:31:00.865Z,10.53
2019-05-29T05:32:00.852Z,10.58
2019-05-29T05:33:00.855Z,10.64
2019-05-29T05:34:00.837Z,10.72
2019-05-29T05:35:00.862Z,10.80
2019-05-29T05:36:00.812Z,10.94
2019-05-29T05:37:00.792Z,11.01
2019-05-29T05:38:00.787Z,11.13
2019-05-29T05:39:00.786Z,11.20
2019-05-29T05:40:00.791Z,11.40
2019-05-29T05:41:00.757Z,11.68
2019-05-29T05:42:00.760Z,11.99
2019-05-29T05:43:00.766Z,12.10
2019-05-29T05:44:00.728Z,12.18
2019-05-29T05:45:00.749Z,12.28
2019-05-29T05:46:00.718Z,12.44
2019-05-29T05:47:00.691Z,12.50
2019-05-29T05:48:00.718Z,12.40
2019-05-29T05:49:00.669Z,12.28
2019-05-29T05:50:00.687Z,12.15
2019-05-29T05:51:00.648Z,12.21
2019-05-29T05:52:00.630Z,12.48
2019-05-29T05:53:00.632Z,12.72
2019-05-29T05:54:00.621Z,12.73
2019-05-29T05:55:00.632Z,12.70
2019-05-29T05:56:00.591Z,12.48
2019-05-29T05:57:00.570Z,12.73
2019-05-29T05:58:00.562Z,12.98
2019-05-29T05:59:00.600Z,13.12
2019-05-29T06:00:00.536Z,13.70
2019-05-29T06:01:00.563Z,14.61
2019-05-29T06:02:00.544Z,15.19
2019-05-29T06:03:00.495Z,16.12
2019-05-29T06:04:00.486Z,16.28
2019-05-29T06:05:00.493Z,16.58
2019-05-29T06:06:00.517Z,17.07
2019-05-29T06:07:00.490Z,17.52
2019-05-29T06:08:00.485Z,18.12
2019-05-29T06:09:00.434Z,18.46
2019-05-29T06:10:00.435Z,19.29
2019-05-29T06:11:00.499Z,19.70
2019-05-29T06:12:00.418Z,19.30
2019-05-29T06:13:00.416Z,18.37
2019-05-29T06:14:00.433Z,18.58
2019-05-29T06:15:00.386Z,18.70
2019-05-29T06:16:00.436Z,18.70
2019-05-29T06:17:00.376Z,19.44
2019-05-29T06:18:19.552Z,19.27
2019-05-29T06:19:01.346Z,19.71
2019-05-29T06:20:00.333Z,18.85
2019-05-29T06:21:00.376Z,18.63
2019-05-29T06:22:00.334Z,18.78
2019-05-29T06:23:00.328Z,19.20
2019-05-29T06:24:00.289Z,20.00
2019-05-29T06:25:00.274Z,20.44
2019-05-29T06:26:00.341Z,19.74
2019-05-29T06:27:00.264Z,18.81
2019-05-29T06:28:00.273Z,19.75
2019-05-29T06:29:00.254Z,19.60
2019-05-29T06:30:00.227Z,19.93
2019-05-29T06:31:00.230Z,20.71
2019-05-29T06:32:00.206Z,21.01
2019-05-29T06:33:00.205Z,20.58
2019-05-29T06:34:00.181Z,19.96
2019-05-29T06:35:00.193Z,20.22
2019-05-29T06:36:00.205Z,20.88
2019-05-29T06:37:00.159Z,20.86
2019-05-29T06:38:00.155Z,18.89
2019-05-29T06:39:00.136Z,19.42
2019-05-29T06:40:00.200Z,20.55
2019-05-29T06:41:00.151Z,20.96
2019-05-29T06:42:00.093Z,21.58
2019-05-29T06:43:00.091Z,22.41
2019-05-29T06:44:00.086Z,22.61
2019-05-29T06:45:00.104Z,23.26
2019-05-29T06:46:00.097Z,23.79
2019-05-29T06:47:00.048Z,23.76
2019-05-29T06:48:00.060Z,22.86
2019-05-29T06:49:01.010Z,23.14
2019-05-29T06:50:00.030Z,23.32
2019-05-29T06:51:00.048Z,22.49
2019-05-29T06:52:00.017Z,22.56
2019-05-29T06:52:59.992Z,23.06
2019-05-29T06:54:00.009Z,23.02
2019-05-29T06:55:00.015Z,23.20
2019-05-29T06:56:01.453Z,23.55
2019-05-29T06:56:59.965Z,23.07
2019-05-29T06:57:59.957Z,23.32
2019-05-29T06:58:59.940Z,22.58
2019-05-29T06:59:59.951Z,22.81
2019-05-29T07:00:59.941Z,22.70
2019-05-29T07:01:59.934Z,23.20
2019-05-29T07:02:59.941Z,23.96
2019-05-29T07:04:11.082Z,23.45
2019-05-29T07:05:00.909Z,22.96
2019-05-29T07:05:59.918Z,22.37
2019-05-29T07:06:59.893Z,21.40
2019-05-29T07:08:16.506Z,22.36
2019-05-29T07:09:00.874Z,23.13
2019-05-29T07:09:59.862Z,23.85
2019-05-29T07:10:59.847Z,24.55
2019-05-29T07:11:59.920Z,24.50
2019-05-29T07:12:59.840Z,24.43
2019-05-29T07:13:59.839Z,24.63
2019-05-29T07:14:59.886Z,25.34
2019-05-29T07:15:59.788Z,25.81
2019-05-29T07:16:59.844Z,25.76
2019-05-29T07:17:59.768Z,25.04
2019-05-29T07:20:03.985Z,24.69
2019-05-29T07:20:59.782Z,24.77
2019-05-29T07:21:59.830Z,24.48
2019-05-29T07:22:59.754Z,24.66
2019-05-29T07:23:59.762Z,24.53
2019-05-29T07:24:59.722Z,24.55
2019-05-29T07:25:59.712Z,24.96
2019-05-29T07:26:59.748Z,25.55
2019-05-29T07:27:59.707Z,25.92
2019-05-29T07:29:08.054Z,25.96
2019-05-29T07:30:00.679Z,26.04
2019-05-29T07:31:03.074Z,26.37
2019-05-29T07:31:59.672Z,26.78
2019-05-29T07:32:59.634Z,24.31
2019-05-29T07:33:59.633Z,24.36
2019-05-29T07:35:03.645Z,24.85
2019-05-29T07:35:59.613Z,25.61
2019-05-29T07:36:59.634Z,24.82
2019-05-29T07:37:59.581Z,25.14
2019-05-29T07:39:03.705Z,25.86
2019-05-29T07:39:59.568Z,26.39
2019-05-29T07:40:59.637Z,25.89
2019-05-29T07:41:59.570Z,26.08
2019-05-29T07:42:59.541Z,25.89
2019-05-29T07:43:59.538Z,26.33
2019-05-29T07:44:59.538Z,26.27
2019-05-29T07:45:59.524Z,25.14
2019-05-29T07:46:59.569Z,25.36
2019-05-29T07:47:59.516Z,25.30
2019-05-29T07:48:59.616Z,25.81
2019-05-29T07:49:59.486Z,26.34
2019-05-29T07:51:07.140Z,26.33
2019-05-29T07:52:00.505Z,26.37
2019-05-29T07:52:59.511Z,25.54
2019-05-29T07:53:59.444Z,24.55
2019-05-29T07:54:59.437Z,24.11
2019-05-29T07:55:59.395Z,24.77
2019-05-29T07:56:59.439Z,24.22
2019-05-29T07:57:59.417Z,24.75
2019-05-29T07:59:02.886Z,24.62
2019-05-29T07:59:59.411Z,24.28
2019-05-29T08:01:12.208Z,23.18
2019-05-29T08:02:00.430Z,23.52
2019-05-29T08:02:59.354Z,24.71
2019-05-29T08:03:59.347Z,25.19
2019-05-29T08:04:59.325Z,23.02
2019-05-29T08:05:59.345Z,21.69
2019-05-29T08:06:59.349Z,21.32
2019-05-29T08:07:59.321Z,21.03
2019-05-29T08:08:59.296Z,22.77
2019-05-29T08:09:59.278Z,23.21
2019-05-29T08:10:59.306Z,23.85
2019-05-29T08:11:59.285Z,24.22
2019-05-29T08:12:59.271Z,24.85
2019-05-29T08:13:59.252Z,25.71
2019-05-29T08:14:59.244Z,25.66
2019-05-29T08:16:03.114Z,25.62
2019-05-29T08:16:59.227Z,24.65
2019-05-29T08:17:59.265Z,24.85
2019-05-29T08:18:59.931Z,25.24
2019-05-29T08:20:06.603Z,25.99
2019-05-29T08:21:00.194Z,26.70
2019-05-29T08:21:59.184Z,26.45
2019-05-29T08:22:59.226Z,26.79
2019-05-29T08:23:59.171Z,27.53
2019-05-29T08:24:59.157Z,28.12
2019-05-29T08:25:59.152Z,27.81
2019-05-29T08:26:59.157Z,27.73
2019-05-29T08:27:59.147Z,27.85
2019-05-29T08:28:59.113Z,25.14
2019-05-29T08:29:59.107Z,23.26
2019-05-29T08:30:59.093Z,24.26
2019-05-29T08:31:59.086Z,25.06
2019-05-29T08:32:59.082Z,26.10
2019-05-29T08:33:59.142Z,26.46
2019-05-29T08:34:59.092Z,26.44
2019-05-29T08:36:00.364Z,26.27
2019-05-29T08:37:06.687Z,26.45
2019-05-29T08:38:00.047Z,26.24
2019-05-29T08:38:59.031Z,26.73
2019-05-29T08:39:59.017Z,27.38
2019-05-29T08:40:59.007Z,27.29
2019-05-29T08:42:21.505Z,27.57
2019-05-29T08:42:59.994Z,26.36
2019-05-29T08:43:58.970Z,26.52
2019-05-29T08:44:58.969Z,26.78
2019-05-29T08:45:58.985Z,26.55
2019-05-29T08:47:09.701Z,26.42
2019-05-29T08:47:59.983Z,26.70
2019-05-29T08:48:58.923Z,27.16
2019-05-29T08:50:16.660Z,26.42
2019-05-29T08:50:59.908Z,27.01
2019-05-29T08:52:11.375Z,26.85
2019-05-29T08:53:02.505Z,26.68
2019-05-29T08:53:58.889Z,26.66
2019-05-29T08:54:58.876Z,26.89
2019-05-29T08:55:58.887Z,27.28
2019-05-29T08:56:58.832Z,27.50
2019-05-29T08:57:58.891Z,27.41
2019-05-29T08:58:58.820Z,27.37
2019-05-29T08:59:58.835Z,27.73
2019-05-29T09:00:58.846Z,27.48
2019-05-29T09:01:58.799Z,27.58
2019-05-29T09:02:58.793Z,27.29
2019-05-29T09:03:58.775Z,26.97
2019-05-29T09:04:58.779Z,26.86
2019-05-29T09:06:08.356Z,26.74
2019-05-29T09:07:00.038Z,26.60
2019-05-29T09:07:58.811Z,26.34
2019-05-29T09:08:58.737Z,26.18
2019-05-29T09:09:58.727Z,26.48
2019-05-29T09:10:58.857Z,26.97
2019-05-29T09:11:58.703Z,27.38
2019-05-29T09:13:04.848Z,26.86
2019-05-29T09:13:59.706Z,26.70
2019-05-29T09:14:58.792Z,27.01
2019-05-29T09:15:58.694Z,26.06
2019-05-29T09:16:58.738Z,25.83
2019-05-29T09:17:58.657Z,25.76
2019-05-29T09:18:58.641Z,25.93
2019-05-29T09:19:58.637Z,25.91
2019-05-29T09:21:03.374Z,25.96
2019-05-29T09:21:59.611Z,26.61
2019-05-29T09:22:58.637Z,26.93
2019-05-29T09:23:59.163Z,27.18
2019-05-29T09:24:58.586Z,27.04
2019-05-29T09:26:13.621Z,27.22
2019-05-29T09:26:59.561Z,27.83
2019-05-29T09:27:58.561Z,27.43
2019-05-29T09:28:58.588Z,26.98
2019-05-29T09:29:58.527Z,27.04
2019-05-29T09:30:58.521Z,26.04
2019-05-29T09:31:58.499Z,26.06
2019-05-29T09:32:58.507Z,26.41
2019-05-29T09:33:58.506Z,27.01
2019-05-29T09:34:58.495Z,26.93
2019-05-29T09:35:58.495Z,26.98
2019-05-29T09:36:58.523Z,26.83
2019-05-29T09:37:58.451Z,26.92
2019-05-29T09:38:58.463Z,27.57
2019-05-29T09:39:58.423Z,28.00
2019-05-29T09:40:58.426Z,27.58
2019-05-29T09:41:58.425Z,26.92
2019-05-29T09:42:58.407Z,27.28
2019-05-29T09:44:00.220Z,25.44
2019-05-29T09:44:58.383Z,24.85
2019-05-29T09:46:02.062Z,25.56
2019-05-29T09:46:58.378Z,25.88
2019-05-29T09:47:58.353Z,26.53
2019-05-29T09:49:01.400Z,26.89
2019-05-29T09:49:58.333Z,27.22
2019-05-29T09:50:58.351Z,25.77
2019-05-29T09:51:58.331Z,25.91
2019-05-29T09:52:59.004Z,25.83
2019-05-29T09:53:59.582Z,25.95
2019-05-29T09:54:58.391Z,26.01
2019-05-29T09:55:59.082Z,25.67
2019-05-29T09:56:59.459Z,25.54
2019-05-29T09:57:58.697Z,25.77
2019-05-29T09:58:59.769Z,25.77
2019-05-29T09:59:59.936Z,25.95
2019-05-29T10:01:18.599Z,25.91
2019-05-29T10:02:00.363Z,25.81
2019-05-29T10:02:59.498Z,26.36
2019-05-29T10:04:00.064Z,26.61
2019-05-29T10:05:00.448Z,27.13
2019-05-29T10:05:59.373Z,27.16
2019-05-29T10:06:59.438Z,26.82
2019-05-29T10:07:59.616Z,27.13
2019-05-29T10:08:58.599Z,26.68
2019-05-29T10:09:59.274Z,26.34
2019-05-29T10:11:06.860Z,26.18
2019-05-29T10:12:03.444Z,26.49
2019-05-29T10:13:00.021Z,26.66
2019-05-29T10:13:58.827Z,26.83
2019-05-29T10:14:58.938Z,27.20
2019-05-29T10:15:59.106Z,27.50
2019-05-29T10:16:59.314Z,27.52
2019-05-29T10:17:58.536Z,27.75
2019-05-29T10:18:59.803Z,27.79
2019-05-29T10:19:58.986Z,27.66
2019-05-29T10:20:59.561Z,27.75
2019-05-29T10:22:00.101Z,28.20
2019-05-29T10:22:58.968Z,28.12
2019-05-29T10:23:59.514Z,28.22
2019-05-29T10:24:58.719Z,28.56
2019-05-29T10:25:58.805Z,28.82
2019-05-29T10:26:59.045Z,28.56
2019-05-29T10:27:57.962Z,28.37
2019-05-29T10:29:07.802Z,28.34
2019-05-29T10:29:58.940Z,28.09
2019-05-29T10:31:02.911Z,28.40
2019-05-29T10:31:58.969Z,28.10
2019-05-29T10:32:57.925Z,27.86
2019-05-29T10:33:57.900Z,27.75
2019-05-29T10:34:57.889Z,27.73
2019-05-29T10:35:57.900Z,27.93
2019-05-29T10:36:57.885Z,27.78
2019-05-29T10:37:57.875Z,27.98
2019-05-29T10:38:57.860Z,28.25
2019-05-29T10:39:57.842Z,27.98
2019-05-29T10:41:06.260Z,27.95
2019-05-29T10:41:58.866Z,27.94
2019-05-29T10:42:57.819Z,26.79
2019-05-29T10:43:57.810Z,26.64
2019-05-29T10:44:57.801Z,27.07
2019-05-29T10:45:57.811Z,26.78
2019-05-29T10:46:57.812Z,27.37
2019-05-29T10:47:57.771Z,27.57
2019-05-29T10:48:57.770Z,27.63
2019-05-29T10:49:57.750Z,27.88
2019-05-29T10:50:57.742Z,27.40
2019-05-29T10:52:10.902Z,26.13
2019-05-29T10:52:58.723Z,26.18
2019-05-29T10:53:59.095Z,25.99
2019-05-29T10:54:57.679Z,26.10
2019-05-29T10:55:57.691Z,26.13
2019-05-29T10:56:57.704Z,26.27
2019-05-29T10:57:57.673Z,26.26
2019-05-29T10:58:59.934Z,26.68
2019-05-29T10:59:57.691Z,26.60
2019-05-29T11:00:57.662Z,26.53
2019-05-29T11:01:57.654Z,26.68
2019-05-29T11:02:57.867Z,26.48
2019-05-29T11:03:57.612Z,25.91
2019-05-29T11:04:59.556Z,24.85
2019-05-29T11:05:57.596Z,24.71
2019-05-29T11:06:57.595Z,25.29
2019-05-29T11:07:57.566Z,25.48
2019-05-29T11:08:57.571Z,25.81
2019-05-29T11:09:57.555Z,26.19
2019-05-29T11:10:57.517Z,25.83
2019-05-29T11:11:57.842Z,25.99
2019-05-29T11:12:57.544Z,26.16
2019-05-29T11:13:57.507Z,25.86
2019-05-29T11:14:57.501Z,26.06
2019-05-29T11:15:57.484Z,25.93
2019-05-29T11:16:57.713Z,26.03
2019-05-29T11:17:57.863Z,26.18
2019-05-29T11:18:57.713Z,25.99
2019-05-29T11:19:58.236Z,26.10
2019-05-29T11:20:57.657Z,25.76
2019-05-29T11:22:01.704Z,25.95
2019-05-29T11:22:58.442Z,25.89
2019-05-29T11:23:58.165Z,25.96
2019-05-29T11:24:58.435Z,25.98
2019-05-29T11:25:58.396Z,26.23
2019-05-29T11:26:58.582Z,25.49
2019-05-29T11:27:58.563Z,25.62
2019-05-29T11:28:58.623Z,26.15
2019-05-29T11:29:58.769Z,26.74
2019-05-29T11:30:57.323Z,26.98
2019-05-29T11:31:57.355Z,26.52
2019-05-29T11:33:00.473Z,26.59
2019-05-29T11:33:57.345Z,26.66
2019-05-29T11:34:57.586Z,26.36
2019-05-29T11:36:09.208Z,26.27
2019-05-29T11:36:58.380Z,25.67
2019-05-29T11:37:58.724Z,24.75
2019-05-29T11:39:01.390Z,24.40
2019-05-29T11:39:59.019Z,24.03
2019-05-29T11:41:22.809Z,23.89
2019-05-29T11:41:58.914Z,24.09
2019-05-29T11:42:57.235Z,24.26
2019-05-29T11:43:57.250Z,24.86
2019-05-29T11:44:57.201Z,25.37
2019-05-29T11:45:57.415Z,25.74
2019-05-29T11:46:58.198Z,25.89
2019-05-29T11:47:59.165Z,25.83
2019-05-29T11:48:57.394Z,25.68
2019-05-29T11:50:07.676Z,25.85
2019-05-29T11:50:58.307Z,25.93
2019-05-29T11:52:18.673Z,25.54
2019-05-29T11:52:58.561Z,25.03
2019-05-29T11:53:57.555Z,24.93
2019-05-29T11:54:59.968Z,24.71
2019-05-29T11:55:58.140Z,24.55
2019-05-29T11:56:57.428Z,24.53
2019-05-29T11:57:57.937Z,24.43
2019-05-29T11:58:57.265Z,24.11
2019-05-29T12:00:01.262Z,23.58
2019-05-29T12:00:59.136Z,23.51
2019-05-29T12:01:58.569Z,23.54
2019-05-29T12:02:57.748Z,23.66
2019-05-29T12:04:18.521Z,23.67
2019-05-29T12:05:00.719Z,23.52
2019-05-29T12:05:59.056Z,23.44
2019-05-29T12:06:57.574Z,23.17
2019-05-29T12:07:57.545Z,23.17
2019-05-29T12:08:57.919Z,23.21
2019-05-29T12:09:57.543Z,23.26
2019-05-29T12:10:57.392Z,22.63
2019-05-29T12:11:57.962Z,22.41
2019-05-29T12:12:57.585Z,22.06
2019-05-29T12:13:58.024Z,22.18
2019-05-29T12:15:05.944Z,21.96
2019-05-29T12:15:57.866Z,21.74
2019-05-29T12:16:58.215Z,21.62
2019-05-29T12:18:19.161Z,21.70
2019-05-29T12:18:57.890Z,21.72
2019-05-29T12:19:59.384Z,22.03
2019-05-29T12:20:58.302Z,22.16
2019-05-29T12:21:58.228Z,22.14
2019-05-29T12:23:18.901Z,21.54
2019-05-29T12:23:58.238Z,21.25
2019-05-29T12:24:56.788Z,21.04
2019-05-29T12:26:18.823Z,21.03
2019-05-29T12:26:58.533Z,21.10
2019-05-29T12:27:57.368Z,21.23
2019-05-29T12:29:03.730Z,21.37
2019-05-29T12:29:58.769Z,21.59
2019-05-29T12:30:56.972Z,21.72
2019-05-29T12:31:57.134Z,21.83
2019-05-29T12:32:56.880Z,21.85
2019-05-29T12:34:00.050Z,21.59
2019-05-29T12:34:58.578Z,21.17
2019-05-29T12:35:56.985Z,21.07
2019-05-29T12:36:57.359Z,21.01
2019-05-29T12:37:57.350Z,21.08
2019-05-29T12:38:57.837Z,21.13
2019-05-29T12:39:57.456Z,20.86
2019-05-29T12:40:57.656Z,20.96
2019-05-29T12:41:57.588Z,20.95
2019-05-29T12:42:57.529Z,20.83
2019-05-29T12:43:57.449Z,20.86
2019-05-29T12:44:57.563Z,20.66
2019-05-29T12:45:57.729Z,20.52
2019-05-29T12:46:57.703Z,20.39
2019-05-29T12:47:58.123Z,20.36
2019-05-29T12:48:57.573Z,20.37
2019-05-29T12:49:57.624Z,20.48
2019-05-29T12:50:58.056Z,20.52
2019-05-29T12:51:57.651Z,20.32
2019-05-29T12:52:57.697Z,20.24
2019-05-29T12:53:57.892Z,20.07
2019-05-29T12:54:56.465Z,20.07
2019-05-29T12:55:56.438Z,20.10
2019-05-29T12:56:57.831Z,20.18
2019-05-29T12:57:57.916Z,20.30
2019-05-29T12:58:56.420Z,20.37
2019-05-29T12:59:56.398Z,20.19